sensor_id;sensor_type;location;lat;lon;timestamp;P1;durP1;ratioP1;P2;durP2;ratioP2
37237;SDS011;23129;49.662;8.448;2022-08-19T00:01:58;22.73;;;13.45;;
37237;SDS011;23129;49.662;8.448;2022-08-19T00:04:27;19.73;;;14.27;;
37237;SDS011;23129;49.662;8.448;2022-08-19T00:07:00;18.83;;;12.75;;
37237;SDS011;23129;49.662;8.448;2022-08-19T00:09:30;18.33;;;12.60;;
37237;SDS011;23129;49.662;8.448;2022-08-19T00:11:59;19.60;;;13.43;;
37237;SDS011;23129;49.662;8.448;2022-08-19T00:14:28;20.65;;;13.18;;
37237;SDS011;23129;49.662;8.448;2022-08-19T00:16:58;18.67;;;13.02;;
37237;SDS011;23129;49.662;8.448;2022-08-19T00:19:27;18.38;;;12.18;;
37237;SDS011;23129;49.662;8.448;2022-08-19T00:21:56;20.08;;;13.45;;
37237;SDS011;23129;49.662;8.448;2022-08-19T00:24:26;22.08;;;14.10;;
37237;SDS011;23129;49.662;8.448;2022-08-19T00:26:55;22.15;;;13.70;;
37237;SDS011;23129;49.662;8.448;2022-08-19T00:29:44;21.00;;;13.32;;
37237;SDS011;23129;49.662;8.448;2022-08-19T00:32:18;22.67;;;12.95;;
37237;SDS011;23129;49.662;8.448;2022-08-19T00:34:47;26.23;;;12.05;;
37237;SDS011;23129;49.662;8.448;2022-08-19T00:37:15;22.92;;;13.25;;
37237;SDS011;23129;49.662;8.448;2022-08-19T00:39:45;18.27;;;12.90;;
37237;SDS011;23129;49.662;8.448;2022-08-19T00:42:14;20.25;;;13.02;;
37237;SDS011;23129;49.662;8.448;2022-08-19T00:44:43;23.38;;;13.43;;
37237;SDS011;23129;49.662;8.448;2022-08-19T00:47:11;19.95;;;12.98;;
37237;SDS011;23129;49.662;8.448;2022-08-19T00:49:42;22.40;;;13.13;;
37237;SDS011;23129;49.662;8.448;2022-08-19T00:52:19;21.65;;;12.90;;
37237;SDS011;23129;49.662;8.448;2022-08-19T00:54:54;19.55;;;13.13;;
37237;SDS011;23129;49.662;8.448;2022-08-19T00:57:26;18.65;;;13.20;;
37237;SDS011;23129;49.662;8.448;2022-08-19T01:00:00;22.05;;;12.93;;
37237;SDS011;23129;49.662;8.448;2022-08-19T01:02:32;19.98;;;13.70;;
37237;SDS011;23129;49.662;8.448;2022-08-19T01:05:01;20.60;;;13.70;;
37237;SDS011;23129;49.662;8.448;2022-08-19T01:07:36;18.73;;;13.15;;
37237;SDS011;23129;49.662;8.448;2022-08-19T01:10:09;16.90;;;12.77;;
37237;SDS011;23129;49.662;8.448;2022-08-19T01:12:41;18.73;;;13.38;;
37237;SDS011;23129;49.662;8.448;2022-08-19T01:15:11;19.45;;;13.15;;
37237;SDS011;23129;49.662;8.448;2022-08-19T01:17:43;16.67;;;11.85;;
37237;SDS011;23129;49.662;8.448;2022-08-19T01:20:14;16.02;;;11.85;;
37237;SDS011;23129;49.662;8.448;2022-08-19T01:22:48;18.33;;;13.40;;
37237;SDS011;23129;49.662;8.448;2022-08-19T01:25:21;18.92;;;13.70;;
37237;SDS011;23129;49.662;8.448;2022-08-19T01:27:54;28.13;;;13.70;;
37237;SDS011;23129;49.662;8.448;2022-08-19T01:30:36;21.60;;;13.18;;
37237;SDS011;23129;49.662;8.448;2022-08-19T01:33:09;19.05;;;13.55;;
37237;SDS011;23129;49.662;8.448;2022-08-19T01:35:38;22.20;;;13.70;;
37237;SDS011;23129;49.662;8.448;2022-08-19T01:38:09;18.00;;;13.15;;
37237;SDS011;23129;49.662;8.448;2022-08-19T01:40:46;18.52;;;13.80;;
37237;SDS011;23129;49.662;8.448;2022-08-19T01:43:15;20.20;;;13.45;;
37237;SDS011;23129;49.662;8.448;2022-08-19T01:45:45;19.20;;;14.07;;
37237;SDS011;23129;49.662;8.448;2022-08-19T01:48:14;18.48;;;13.07;;
37237;SDS011;23129;49.662;8.448;2022-08-19T01:50:42;24.05;;;13.98;;
37237;SDS011;23129;49.662;8.448;2022-08-19T01:53:13;20.65;;;14.20;;
37237;SDS011;23129;49.662;8.448;2022-08-19T01:55:42;20.95;;;14.02;;
37237;SDS011;23129;49.662;8.448;2022-08-19T01:58:12;19.23;;;13.25;;
37237;SDS011;23129;49.662;8.448;2022-08-19T02:00:46;26.58;;;13.27;;
37237;SDS011;23129;49.662;8.448;2022-08-19T02:03:15;19.45;;;12.70;;
37237;SDS011;23129;49.662;8.448;2022-08-19T02:05:44;21.90;;;13.85;;
37237;SDS011;23129;49.662;8.448;2022-08-19T02:08:14;18.63;;;13.02;;
37237;SDS011;23129;49.662;8.448;2022-08-19T02:10:43;20.85;;;13.43;;
37237;SDS011;23129;49.662;8.448;2022-08-19T02:13:12;22.38;;;14.27;;
37237;SDS011;23129;49.662;8.448;2022-08-19T02:15:46;16.92;;;12.20;;
37237;SDS011;23129;49.662;8.448;2022-08-19T02:18:14;22.25;;;13.93;;
37237;SDS011;23129;49.662;8.448;2022-08-19T02:20:43;24.08;;;15.27;;
37237;SDS011;23129;49.662;8.448;2022-08-19T02:23:16;24.33;;;13.55;;
37237;SDS011;23129;49.662;8.448;2022-08-19T02:25:45;22.65;;;14.02;;
37237;SDS011;23129;49.662;8.448;2022-08-19T02:28:15;20.95;;;13.50;;
37237;SDS011;23129;49.662;8.448;2022-08-19T02:30:45;23.17;;;14.63;;
37237;SDS011;23129;49.662;8.448;2022-08-19T02:33:15;20.75;;;14.38;;
37237;SDS011;23129;49.662;8.448;2022-08-19T02:35:45;21.90;;;14.40;;
37237;SDS011;23129;49.662;8.448;2022-08-19T02:38:15;22.83;;;14.20;;
37237;SDS011;23129;49.662;8.448;2022-08-19T02:40:53;21.13;;;13.82;;
37237;SDS011;23129;49.662;8.448;2022-08-19T02:43:24;23.33;;;13.85;;
37237;SDS011;23129;49.662;8.448;2022-08-19T02:45:53;20.95;;;14.25;;
37237;SDS011;23129;49.662;8.448;2022-08-19T02:48:23;20.73;;;14.02;;
37237;SDS011;23129;49.662;8.448;2022-08-19T02:50:58;22.35;;;13.55;;
37237;SDS011;23129;49.662;8.448;2022-08-19T02:53:29;19.70;;;13.90;;
37237;SDS011;23129;49.662;8.448;2022-08-19T02:55:57;20.92;;;13.57;;
37237;SDS011;23129;49.662;8.448;2022-08-19T02:58:26;20.08;;;13.75;;
37237;SDS011;23129;49.662;8.448;2022-08-19T03:00:55;25.30;;;14.95;;
37237;SDS011;23129;49.662;8.448;2022-08-19T03:03:25;24.73;;;14.57;;
37237;SDS011;23129;49.662;8.448;2022-08-19T03:06:02;28.10;;;13.23;;
37237;SDS011;23129;49.662;8.448;2022-08-19T03:08:36;20.05;;;13.30;;
37237;SDS011;23129;49.662;8.448;2022-08-19T03:11:05;22.00;;;13.68;;
37237;SDS011;23129;49.662;8.448;2022-08-19T03:13:33;26.27;;;14.48;;
37237;SDS011;23129;49.662;8.448;2022-08-19T03:16:03;24.88;;;14.75;;
37237;SDS011;23129;49.662;8.448;2022-08-19T03:18:33;27.45;;;15.00;;
37237;SDS011;23129;49.662;8.448;2022-08-19T03:21:01;23.55;;;15.38;;
37237;SDS011;23129;49.662;8.448;2022-08-19T03:23:30;24.88;;;14.55;;
37237;SDS011;23129;49.662;8.448;2022-08-19T03:26:02;19.50;;;14.13;;
37237;SDS011;23129;49.662;8.448;2022-08-19T03:28:42;24.88;;;15.15;;
37237;SDS011;23129;49.662;8.448;2022-08-19T03:31:24;22.70;;;14.98;;
37237;SDS011;23129;49.662;8.448;2022-08-19T03:34:18;23.13;;;15.25;;
37237;SDS011;23129;49.662;8.448;2022-08-19T03:36:59;22.90;;;14.82;;
37237;SDS011;23129;49.662;8.448;2022-08-19T03:39:32;17.92;;;13.50;;
37237;SDS011;23129;49.662;8.448;2022-08-19T03:42:05;30.80;;;14.43;;
37237;SDS011;23129;49.662;8.448;2022-08-19T03:45:06;21.08;;;13.60;;
37237;SDS011;23129;49.662;8.448;2022-08-19T03:47:39;21.15;;;13.73;;
37237;SDS011;23129;49.662;8.448;2022-08-19T03:50:08;18.58;;;12.93;;
37237;SDS011;23129;49.662;8.448;2022-08-19T03:52:37;20.50;;;13.15;;
37237;SDS011;23129;49.662;8.448;2022-08-19T03:55:10;18.02;;;13.63;;
37237;SDS011;23129;49.662;8.448;2022-08-19T03:57:40;18.92;;;13.35;;
37237;SDS011;23129;49.662;8.448;2022-08-19T04:00:09;16.85;;;12.10;;
37237;SDS011;23129;49.662;8.448;2022-08-19T04:02:40;22.95;;;13.25;;
37237;SDS011;23129;49.662;8.448;2022-08-19T04:05:26;38.50;;;13.13;;
37237;SDS011;23129;49.662;8.448;2022-08-19T04:07:55;19.55;;;13.45;;
37237;SDS011;23129;49.662;8.448;2022-08-19T04:10:25;20.25;;;12.75;;
37237;SDS011;23129;49.662;8.448;2022-08-19T04:12:56;16.63;;;12.27;;
37237;SDS011;23129;49.662;8.448;2022-08-19T04:15:24;16.27;;;12.50;;
37237;SDS011;23129;49.662;8.448;2022-08-19T04:17:55;18.88;;;13.02;;
37237;SDS011;23129;49.662;8.448;2022-08-19T04:20:23;17.40;;;12.13;;
37237;SDS011;23129;49.662;8.448;2022-08-19T04:22:51;17.38;;;12.85;;
37237;SDS011;23129;49.662;8.448;2022-08-19T04:25:20;19.10;;;12.30;;
37237;SDS011;23129;49.662;8.448;2022-08-19T04:27:48;17.52;;;12.98;;
37237;SDS011;23129;49.662;8.448;2022-08-19T04:30:18;24.05;;;12.63;;
37237;SDS011;23129;49.662;8.448;2022-08-19T04:32:48;16.73;;;11.48;;
37237;SDS011;23129;49.662;8.448;2022-08-19T04:35:17;20.30;;;13.13;;
37237;SDS011;23129;49.662;8.448;2022-08-19T04:37:50;15.38;;;11.68;;
37237;SDS011;23129;49.662;8.448;2022-08-19T04:40:18;14.75;;;11.43;;
37237;SDS011;23129;49.662;8.448;2022-08-19T04:43:04;16.42;;;12.27;;
37237;SDS011;23129;49.662;8.448;2022-08-19T04:45:35;20.00;;;12.07;;
37237;SDS011;23129;49.662;8.448;2022-08-19T04:48:09;16.25;;;11.18;;
37237;SDS011;23129;49.662;8.448;2022-08-19T04:50:53;17.90;;;12.68;;
37237;SDS011;23129;49.662;8.448;2022-08-19T04:53:24;17.20;;;12.80;;
37237;SDS011;23129;49.662;8.448;2022-08-19T04:56:03;16.95;;;11.38;;
37237;SDS011;23129;49.662;8.448;2022-08-19T04:58:35;16.15;;;11.80;;
37237;SDS011;23129;49.662;8.448;2022-08-19T05:01:11;20.05;;;11.93;;
37237;SDS011;23129;49.662;8.448;2022-08-19T05:03:40;20.48;;;12.18;;
37237;SDS011;23129;49.662;8.448;2022-08-19T05:06:09;16.48;;;11.88;;
37237;SDS011;23129;49.662;8.448;2022-08-19T05:08:41;15.55;;;11.20;;
37237;SDS011;23129;49.662;8.448;2022-08-19T05:11:12;17.83;;;11.93;;
37237;SDS011;23129;49.662;8.448;2022-08-19T05:13:46;15.40;;;10.63;;
37237;SDS011;23129;49.662;8.448;2022-08-19T05:16:17;17.70;;;11.85;;
37237;SDS011;23129;49.662;8.448;2022-08-19T05:18:48;17.00;;;10.82;;
37237;SDS011;23129;49.662;8.448;2022-08-19T05:21:35;15.50;;;10.50;;
37237;SDS011;23129;49.662;8.448;2022-08-19T05:24:26;15.80;;;10.95;;
37237;SDS011;23129;49.662;8.448;2022-08-19T05:26:56;21.80;;;11.25;;
37237;SDS011;23129;49.662;8.448;2022-08-19T05:29:25;18.85;;;10.93;;
37237;SDS011;23129;49.662;8.448;2022-08-19T05:32:03;12.88;;;11.07;;
37237;SDS011;23129;49.662;8.448;2022-08-19T05:34:34;15.23;;;11.10;;
37237;SDS011;23129;49.662;8.448;2022-08-19T05:37:04;15.82;;;11.90;;
37237;SDS011;23129;49.662;8.448;2022-08-19T05:39:35;20.85;;;11.30;;
37237;SDS011;23129;49.662;8.448;2022-08-19T05:42:07;15.40;;;11.25;;
37237;SDS011;23129;49.662;8.448;2022-08-19T05:44:38;17.40;;;11.52;;
37237;SDS011;23129;49.662;8.448;2022-08-19T05:47:11;16.95;;;11.73;;
37237;SDS011;23129;49.662;8.448;2022-08-19T05:49:41;17.63;;;11.20;;
37237;SDS011;23129;49.662;8.448;2022-08-19T05:52:11;21.25;;;11.93;;
37237;SDS011;23129;49.662;8.448;2022-08-19T05:54:44;16.60;;;11.40;;
37237;SDS011;23129;49.662;8.448;2022-08-19T05:57:17;17.23;;;11.07;;
37237;SDS011;23129;49.662;8.448;2022-08-19T05:59:46;15.05;;;10.93;;
37237;SDS011;23129;49.662;8.448;2022-08-19T06:02:25;19.05;;;11.18;;
37237;SDS011;23129;49.662;8.448;2022-08-19T06:04:53;16.70;;;11.32;;
37237;SDS011;23129;49.662;8.448;2022-08-19T06:07:22;17.88;;;12.02;;
37237;SDS011;23129;49.662;8.448;2022-08-19T06:09:50;21.15;;;12.27;;
37237;SDS011;23129;49.662;8.448;2022-08-19T06:12:26;16.55;;;11.18;;
37237;SDS011;23129;49.662;8.448;2022-08-19T06:14:58;15.00;;;12.00;;
37237;SDS011;23129;49.662;8.448;2022-08-19T06:17:29;15.15;;;11.65;;
37237;SDS011;23129;49.662;8.448;2022-08-19T06:19:58;21.33;;;12.35;;
37237;SDS011;23129;49.662;8.448;2022-08-19T06:22:26;13.98;;;10.82;;
37237;SDS011;23129;49.662;8.448;2022-08-19T06:24:55;18.45;;;11.95;;
37237;SDS011;23129;49.662;8.448;2022-08-19T06:27:24;22.15;;;12.13;;
37237;SDS011;23129;49.662;8.448;2022-08-19T06:29:52;18.00;;;11.48;;
37237;SDS011;23129;49.662;8.448;2022-08-19T06:32:20;15.68;;;10.85;;
37237;SDS011;23129;49.662;8.448;2022-08-19T06:34:50;22.15;;;11.93;;
37237;SDS011;23129;49.662;8.448;2022-08-19T06:37:18;17.58;;;11.48;;
37237;SDS011;23129;49.662;8.448;2022-08-19T06:39:48;14.60;;;10.50;;
37237;SDS011;23129;49.662;8.448;2022-08-19T06:42:17;14.30;;;10.02;;
37237;SDS011;23129;49.662;8.448;2022-08-19T06:44:49;15.88;;;10.65;;
37237;SDS011;23129;49.662;8.448;2022-08-19T06:47:19;19.70;;;9.48;;
37237;SDS011;23129;49.662;8.448;2022-08-19T06:49:56;17.92;;;11.55;;
37237;SDS011;23129;49.662;8.448;2022-08-19T06:54:59;16.52;;;10.63;;
37237;SDS011;23129;49.662;8.448;2022-08-19T06:57:32;14.25;;;10.13;;
37237;SDS011;23129;49.662;8.448;2022-08-19T07:00:02;15.82;;;9.95;;
37237;SDS011;23129;49.662;8.448;2022-08-19T07:02:38;12.07;;;9.70;;
37237;SDS011;23129;49.662;8.448;2022-08-19T07:05:15;16.08;;;10.63;;
37237;SDS011;23129;49.662;8.448;2022-08-19T07:07:45;16.08;;;9.77;;
37237;SDS011;23129;49.662;8.448;2022-08-19T07:10:16;18.63;;;9.88;;
37237;SDS011;23129;49.662;8.448;2022-08-19T07:12:45;14.82;;;10.10;;
37237;SDS011;23129;49.662;8.448;2022-08-19T07:15:13;12.35;;;9.85;;
37237;SDS011;23129;49.662;8.448;2022-08-19T07:17:44;12.60;;;9.00;;
37237;SDS011;23129;49.662;8.448;2022-08-19T07:20:19;14.07;;;8.47;;
37237;SDS011;23129;49.662;8.448;2022-08-19T07:22:54;13.27;;;6.93;;
37237;SDS011;23129;49.662;8.448;2022-08-19T07:25:23;16.35;;;7.82;;
37237;SDS011;23129;49.662;8.448;2022-08-19T07:27:58;11.20;;;7.75;;
37237;SDS011;23129;49.662;8.448;2022-08-19T07:30:27;18.80;;;8.10;;
37237;SDS011;23129;49.662;8.448;2022-08-19T07:32:57;12.10;;;7.15;;
37237;SDS011;23129;49.662;8.448;2022-08-19T07:35:30;9.38;;;6.80;;
37237;SDS011;23129;49.662;8.448;2022-08-19T07:37:59;14.32;;;7.65;;
37237;SDS011;23129;49.662;8.448;2022-08-19T07:40:30;12.32;;;7.10;;
37237;SDS011;23129;49.662;8.448;2022-08-19T07:42:58;10.40;;;7.10;;
37237;SDS011;23129;49.662;8.448;2022-08-19T07:45:27;10.15;;;6.53;;
37237;SDS011;23129;49.662;8.448;2022-08-19T07:47:55;11.75;;;7.18;;
37237;SDS011;23129;49.662;8.448;2022-08-19T07:50:24;7.18;;;6.30;;
37237;SDS011;23129;49.662;8.448;2022-08-19T07:52:54;13.48;;;7.10;;
37237;SDS011;23129;49.662;8.448;2022-08-19T07:55:23;11.10;;;6.65;;
37237;SDS011;23129;49.662;8.448;2022-08-19T07:58:09;7.97;;;5.90;;
37237;SDS011;23129;49.662;8.448;2022-08-19T08:00:40;8.38;;;6.05;;
37237;SDS011;23129;49.662;8.448;2022-08-19T08:03:10;7.45;;;6.43;;
37237;SDS011;23129;49.662;8.448;2022-08-19T08:05:39;8.43;;;6.20;;
37237;SDS011;23129;49.662;8.448;2022-08-19T08:08:26;9.35;;;5.85;;
37237;SDS011;23129;49.662;8.448;2022-08-19T08:11:14;7.38;;;4.50;;
37237;SDS011;23129;49.662;8.448;2022-08-19T08:13:46;9.80;;;5.25;;
37237;SDS011;23129;49.662;8.448;2022-08-19T08:16:29;9.40;;;6.10;;
37237;SDS011;23129;49.662;8.448;2022-08-19T08:19:05;13.80;;;6.43;;
37237;SDS011;23129;49.662;8.448;2022-08-19T08:21:48;7.10;;;5.70;;
37237;SDS011;23129;49.662;8.448;2022-08-19T08:24:19;7.95;;;5.82;;
37237;SDS011;23129;49.662;8.448;2022-08-19T08:26:53;6.38;;;5.32;;
37237;SDS011;23129;49.662;8.448;2022-08-19T08:29:23;10.70;;;5.60;;
37237;SDS011;23129;49.662;8.448;2022-08-19T08:32:00;8.40;;;5.97;;
37237;SDS011;23129;49.662;8.448;2022-08-19T08:34:28;5.75;;;5.20;;
37237;SDS011;23129;49.662;8.448;2022-08-19T08:36:57;7.63;;;5.03;;
37237;SDS011;23129;49.662;8.448;2022-08-19T08:39:27;9.13;;;5.38;;
37237;SDS011;23129;49.662;8.448;2022-08-19T08:41:56;8.90;;;6.05;;
37237;SDS011;23129;49.662;8.448;2022-08-19T08:44:43;6.00;;;5.00;;
37237;SDS011;23129;49.662;8.448;2022-08-19T08:47:28;8.63;;;5.80;;
37237;SDS011;23129;49.662;8.448;2022-08-19T08:50:08;6.65;;;5.82;;
37237;SDS011;23129;49.662;8.448;2022-08-19T08:52:41;11.63;;;5.95;;
37237;SDS011;23129;49.662;8.448;2022-08-19T08:55:16;12.88;;;5.45;;
37237;SDS011;23129;49.662;8.448;2022-08-19T08:57:51;10.85;;;5.70;;
37237;SDS011;23129;49.662;8.448;2022-08-19T09:00:27;6.40;;;5.18;;
37237;SDS011;23129;49.662;8.448;2022-08-19T09:03:01;7.50;;;5.60;;
37237;SDS011;23129;49.662;8.448;2022-08-19T09:05:36;5.40;;;4.30;;
37237;SDS011;23129;49.662;8.448;2022-08-19T09:08:18;13.43;;;5.25;;
37237;SDS011;23129;49.662;8.448;2022-08-19T09:10:55;6.10;;;4.82;;
37237;SDS011;23129;49.662;8.448;2022-08-19T09:13:27;4.57;;;4.05;;
37237;SDS011;23129;49.662;8.448;2022-08-19T09:16:05;11.02;;;5.68;;
37237;SDS011;23129;49.662;8.448;2022-08-19T09:18:39;16.70;;;4.55;;
37237;SDS011;23129;49.662;8.448;2022-08-19T09:21:10;10.45;;;4.45;;
37237;SDS011;23129;49.662;8.448;2022-08-19T09:23:40;7.00;;;3.92;;
37237;SDS011;23129;49.662;8.448;2022-08-19T09:26:12;11.95;;;4.30;;
37237;SDS011;23129;49.662;8.448;2022-08-19T09:28:46;4.05;;;3.55;;
37237;SDS011;23129;49.662;8.448;2022-08-19T09:31:17;8.98;;;4.85;;
37237;SDS011;23129;49.662;8.448;2022-08-19T09:33:48;4.28;;;3.85;;
37237;SDS011;23129;49.662;8.448;2022-08-19T09:36:19;6.05;;;4.50;;
37237;SDS011;23129;49.662;8.448;2022-08-19T09:39:00;6.00;;;4.78;;
37237;SDS011;23129;49.662;8.448;2022-08-19T09:41:43;6.65;;;4.55;;
37237;SDS011;23129;49.662;8.448;2022-08-19T09:44:13;4.53;;;3.80;;
37237;SDS011;23129;49.662;8.448;2022-08-19T09:46:41;7.32;;;4.10;;
37237;SDS011;23129;49.662;8.448;2022-08-19T09:49:10;6.35;;;4.45;;
37237;SDS011;23129;49.662;8.448;2022-08-19T09:51:38;7.90;;;3.40;;
37237;SDS011;23129;49.662;8.448;2022-08-19T09:54:07;5.05;;;3.78;;
37237;SDS011;23129;49.662;8.448;2022-08-19T09:56:36;5.90;;;3.67;;
37237;SDS011;23129;49.662;8.448;2022-08-19T09:59:09;5.55;;;4.28;;
37237;SDS011;23129;49.662;8.448;2022-08-19T10:01:38;4.13;;;3.72;;
37237;SDS011;23129;49.662;8.448;2022-08-19T10:04:08;6.47;;;5.13;;
37237;SDS011;23129;49.662;8.448;2022-08-19T10:06:45;9.15;;;6.03;;
37237;SDS011;23129;49.662;8.448;2022-08-19T10:09:19;11.55;;;6.68;;
37237;SDS011;23129;49.662;8.448;2022-08-19T10:12:00;13.18;;;6.82;;
37237;SDS011;23129;49.662;8.448;2022-08-19T10:14:30;5.18;;;4.68;;
37237;SDS011;23129;49.662;8.448;2022-08-19T10:17:00;7.20;;;5.55;;
37237;SDS011;23129;49.662;8.448;2022-08-19T10:19:47;11.15;;;5.65;;
37237;SDS011;23129;49.662;8.448;2022-08-19T10:22:21;9.60;;;5.20;;
37237;SDS011;23129;49.662;8.448;2022-08-19T10:24:51;7.63;;;4.38;;
37237;SDS011;23129;49.662;8.448;2022-08-19T10:27:20;8.98;;;4.07;;
37237;SDS011;23129;49.662;8.448;2022-08-19T10:29:53;4.47;;;4.15;;
37237;SDS011;23129;49.662;8.448;2022-08-19T10:32:24;5.50;;;4.45;;
37237;SDS011;23129;49.662;8.448;2022-08-19T10:35:00;7.13;;;4.30;;
37237;SDS011;23129;49.662;8.448;2022-08-19T10:37:31;5.10;;;4.70;;
37237;SDS011;23129;49.662;8.448;2022-08-19T10:40:00;5.05;;;4.60;;
37237;SDS011;23129;49.662;8.448;2022-08-19T10:42:31;9.13;;;4.78;;
37237;SDS011;23129;49.662;8.448;2022-08-19T10:45:01;4.70;;;4.10;;
37237;SDS011;23129;49.662;8.448;2022-08-19T10:47:30;4.30;;;3.90;;
37237;SDS011;23129;49.662;8.448;2022-08-19T10:49:59;5.78;;;4.45;;
37237;SDS011;23129;49.662;8.448;2022-08-19T10:52:45;4.85;;;4.45;;
37237;SDS011;23129;49.662;8.448;2022-08-19T10:55:17;5.22;;;4.72;;
37237;SDS011;23129;49.662;8.448;2022-08-19T10:58:11;4.13;;;3.75;;
37237;SDS011;23129;49.662;8.448;2022-08-19T11:00:42;6.85;;;3.85;;
37237;SDS011;23129;49.662;8.448;2022-08-19T11:03:19;3.85;;;3.50;;
37237;SDS011;23129;49.662;8.448;2022-08-19T11:05:56;6.97;;;4.20;;
37237;SDS011;23129;49.662;8.448;2022-08-19T11:08:26;5.70;;;4.38;;
37237;SDS011;23129;49.662;8.448;2022-08-19T11:10:58;5.28;;;4.25;;
37237;SDS011;23129;49.662;8.448;2022-08-19T11:13:30;7.32;;;4.88;;
37237;SDS011;23129;49.662;8.448;2022-08-19T11:16:04;4.68;;;3.78;;
37237;SDS011;23129;49.662;8.448;2022-08-19T11:18:35;6.47;;;3.65;;
37237;SDS011;23129;49.662;8.448;2022-08-19T11:21:05;5.25;;;4.20;;
37237;SDS011;23129;49.662;8.448;2022-08-19T11:23:36;7.38;;;4.25;;
37237;SDS011;23129;49.662;8.448;2022-08-19T11:26:04;6.93;;;4.60;;
37237;SDS011;23129;49.662;8.448;2022-08-19T11:28:33;4.75;;;4.30;;
37237;SDS011;23129;49.662;8.448;2022-08-19T11:31:03;9.38;;;4.10;;
37237;SDS011;23129;49.662;8.448;2022-08-19T11:33:36;4.55;;;4.18;;
37237;SDS011;23129;49.662;8.448;2022-08-19T11:36:05;4.65;;;4.18;;
37237;SDS011;23129;49.662;8.448;2022-08-19T11:38:34;6.30;;;4.05;;
37237;SDS011;23129;49.662;8.448;2022-08-19T11:41:05;3.72;;;3.53;;
37237;SDS011;23129;49.662;8.448;2022-08-19T11:43:34;7.47;;;4.07;;
37237;SDS011;23129;49.662;8.448;2022-08-19T11:46:07;3.70;;;3.47;;
37237;SDS011;23129;49.662;8.448;2022-08-19T11:48:39;4.70;;;4.30;;
37237;SDS011;23129;49.662;8.448;2022-08-19T11:51:09;4.32;;;4.00;;
37237;SDS011;23129;49.662;8.448;2022-08-19T11:53:42;4.57;;;4.17;;
37237;SDS011;23129;49.662;8.448;2022-08-19T11:56:11;4.43;;;4.03;;
37237;SDS011;23129;49.662;8.448;2022-08-19T11:58:40;4.57;;;3.38;;
37237;SDS011;23129;49.662;8.448;2022-08-19T12:01:12;3.30;;;3.00;;
37237;SDS011;23129;49.662;8.448;2022-08-19T12:03:43;8.57;;;3.40;;
37237;SDS011;23129;49.662;8.448;2022-08-19T12:06:13;5.18;;;3.90;;
37237;SDS011;23129;49.662;8.448;2022-08-19T12:08:45;3.15;;;2.95;;
37237;SDS011;23129;49.662;8.448;2022-08-19T12:11:14;5.43;;;2.85;;
37237;SDS011;23129;49.662;8.448;2022-08-19T12:13:43;3.05;;;2.85;;
37237;SDS011;23129;49.662;8.448;2022-08-19T12:16:15;3.30;;;3.00;;
37237;SDS011;23129;49.662;8.448;2022-08-19T12:18:46;4.13;;;3.05;;
37237;SDS011;23129;49.662;8.448;2022-08-19T12:21:15;3.17;;;2.80;;
37237;SDS011;23129;49.662;8.448;2022-08-19T12:23:47;3.38;;;3.17;;
37237;SDS011;23129;49.662;8.448;2022-08-19T12:26:21;4.05;;;3.53;;
37237;SDS011;23129;49.662;8.448;2022-08-19T12:28:50;3.80;;;3.47;;
37237;SDS011;23129;49.662;8.448;2022-08-19T12:31:21;4.07;;;3.65;;
37237;SDS011;23129;49.662;8.448;2022-08-19T12:33:49;3.40;;;3.10;;
37237;SDS011;23129;49.662;8.448;2022-08-19T12:36:18;3.95;;;3.22;;
37237;SDS011;23129;49.662;8.448;2022-08-19T12:38:48;3.42;;;3.13;;
37237;SDS011;23129;49.662;8.448;2022-08-19T12:41:17;4.60;;;2.75;;
37237;SDS011;23129;49.662;8.448;2022-08-19T12:43:48;2.95;;;2.75;;
37237;SDS011;23129;49.662;8.448;2022-08-19T12:46:17;3.95;;;2.92;;
37237;SDS011;23129;49.662;8.448;2022-08-19T12:48:51;3.50;;;2.95;;
37237;SDS011;23129;49.662;8.448;2022-08-19T12:51:21;6.25;;;2.38;;
37237;SDS011;23129;49.662;8.448;2022-08-19T12:53:51;5.55;;;2.45;;
37237;SDS011;23129;49.662;8.448;2022-08-19T12:56:19;3.20;;;2.67;;
37237;SDS011;23129;49.662;8.448;2022-08-19T12:58:48;3.78;;;2.80;;
37237;SDS011;23129;49.662;8.448;2022-08-19T13:01:18;2.35;;;2.25;;
37237;SDS011;23129;49.662;8.448;2022-08-19T13:03:49;3.00;;;2.65;;
37237;SDS011;23129;49.662;8.448;2022-08-19T13:06:19;2.42;;;2.22;;
37237;SDS011;23129;49.662;8.448;2022-08-19T13:08:47;3.25;;;2.95;;
37237;SDS011;23129;49.662;8.448;2022-08-19T13:11:17;3.20;;;2.83;;
37237;SDS011;23129;49.662;8.448;2022-08-19T13:13:51;2.60;;;2.40;;
37237;SDS011;23129;49.662;8.448;2022-08-19T13:16:23;2.78;;;2.58;;
37237;SDS011;23129;49.662;8.448;2022-08-19T13:18:54;3.28;;;2.97;;
37237;SDS011;23129;49.662;8.448;2022-08-19T13:21:23;3.35;;;3.15;;
37237;SDS011;23129;49.662;8.448;2022-08-19T13:23:56;3.50;;;3.20;;
37237;SDS011;23129;49.662;8.448;2022-08-19T13:26:24;2.78;;;2.58;;
37237;SDS011;23129;49.662;8.448;2022-08-19T13:28:53;4.10;;;3.13;;
37237;SDS011;23129;49.662;8.448;2022-08-19T13:31:41;5.00;;;3.25;;
37237;SDS011;23129;49.662;8.448;2022-08-19T13:34:30;3.15;;;2.85;;
37237;SDS011;23129;49.662;8.448;2022-08-19T13:37:02;10.57;;;3.08;;
37237;SDS011;23129;49.662;8.448;2022-08-19T13:39:32;3.22;;;2.92;;
37237;SDS011;23129;49.662;8.448;2022-08-19T13:42:01;3.05;;;2.47;;
37237;SDS011;23129;49.662;8.448;2022-08-19T13:44:31;5.07;;;3.20;;
37237;SDS011;23129;49.662;8.448;2022-08-19T13:47:02;4.80;;;3.17;;
37237;SDS011;23129;49.662;8.448;2022-08-19T13:49:33;3.20;;;2.90;;
37237;SDS011;23129;49.662;8.448;2022-08-19T13:52:03;2.85;;;2.65;;
37237;SDS011;23129;49.662;8.448;2022-08-19T13:54:33;3.50;;;2.70;;
37237;SDS011;23129;49.662;8.448;2022-08-19T13:57:01;3.80;;;3.50;;
37237;SDS011;23129;49.662;8.448;2022-08-19T13:59:30;2.75;;;2.55;;
37237;SDS011;23129;49.662;8.448;2022-08-19T14:01:59;6.63;;;3.42;;
37237;SDS011;23129;49.662;8.448;2022-08-19T14:04:31;3.78;;;2.80;;
37237;SDS011;23129;49.662;8.448;2022-08-19T14:07:00;3.22;;;2.90;;
37237;SDS011;23129;49.662;8.448;2022-08-19T14:09:29;3.55;;;3.25;;
37237;SDS011;23129;49.662;8.448;2022-08-19T14:11:58;4.65;;;3.20;;
37237;SDS011;23129;49.662;8.448;2022-08-19T14:14:26;4.72;;;3.40;;
37237;SDS011;23129;49.662;8.448;2022-08-19T14:16:55;3.88;;;2.88;;
37237;SDS011;23129;49.662;8.448;2022-08-19T14:19:25;3.13;;;2.92;;
37237;SDS011;23129;49.662;8.448;2022-08-19T14:21:55;3.20;;;3.00;;
37237;SDS011;23129;49.662;8.448;2022-08-19T14:24:24;8.35;;;3.25;;
37237;SDS011;23129;49.662;8.448;2022-08-19T14:26:53;2.97;;;2.78;;
37237;SDS011;23129;49.662;8.448;2022-08-19T14:29:21;3.08;;;2.88;;
37237;SDS011;23129;49.662;8.448;2022-08-19T14:31:50;3.22;;;2.83;;
37237;SDS011;23129;49.662;8.448;2022-08-19T14:34:18;3.85;;;2.92;;
37237;SDS011;23129;49.662;8.448;2022-08-19T14:36:48;6.90;;;3.15;;
37237;SDS011;23129;49.662;8.448;2022-08-19T14:39:16;2.83;;;2.63;;
37237;SDS011;23129;49.662;8.448;2022-08-19T14:41:45;3.05;;;2.85;;
37237;SDS011;23129;49.662;8.448;2022-08-19T14:44:13;3.78;;;2.75;;
37237;SDS011;23129;49.662;8.448;2022-08-19T14:46:42;2.50;;;2.17;;
37237;SDS011;23129;49.662;8.448;2022-08-19T14:49:15;3.70;;;2.10;;
37237;SDS011;23129;49.662;8.448;2022-08-19T14:51:44;4.20;;;2.20;;
37237;SDS011;23129;49.662;8.448;2022-08-19T14:54:15;1.98;;;1.88;;
37237;SDS011;23129;49.662;8.448;2022-08-19T14:56:43;2.42;;;2.22;;
37237;SDS011;23129;49.662;8.448;2022-08-19T14:59:12;4.80;;;2.72;;
37237;SDS011;23129;49.662;8.448;2022-08-19T15:01:40;3.13;;;2.92;;
37237;SDS011;23129;49.662;8.448;2022-08-19T15:04:09;3.50;;;3.13;;